sensor_id;sensor_type;location;lat;lon;timestamp;P1;durP1;ratioP1;P2;durP2;ratioP2
81273;SDS011;70753;47.908;11.274;2023-08-01T00:00:40;6.18;;;2.80;;
81273;SDS011;70753;47.908;11.274;2023-08-01T00:03:08;5.20;;;2.10;;
81273;SDS011;70753;47.908;11.274;2023-08-01T00:05:33;6.03;;;2.58;;
81273;SDS011;70753;47.908;11.274;2023-08-01T00:07:58;5.15;;;2.33;;
81273;SDS011;70753;47.908;11.274;2023-08-01T00:10:24;6.32;;;2.00;;
81273;SDS011;70753;47.908;11.274;2023-08-01T00:12:49;6.85;;;2.45;;
81273;SDS011;70753;47.908;11.274;2023-08-01T00:15:15;7.50;;;2.60;;
81273;SDS011;70753;47.908;11.274;2023-08-01T00:17:41;4.43;;;1.92;;
81273;SDS011;70753;47.908;11.274;2023-08-01T00:20:10;4.45;;;2.28;;
81273;SDS011;70753;47.908;11.274;2023-08-01T00:22:35;5.00;;;2.10;;
81273;SDS011;70753;47.908;11.274;2023-08-01T00:25:01;4.95;;;2.40;;
81273;SDS011;70753;47.908;11.274;2023-08-01T00:27:26;5.63;;;2.40;;
81273;SDS011;70753;47.908;11.274;2023-08-01T00:29:52;5.88;;;2.20;;
81273;SDS011;70753;47.908;11.274;2023-08-01T00:32:17;5.63;;;2.63;;
81273;SDS011;70753;47.908;11.274;2023-08-01T00:34:42;4.50;;;2.00;;
81273;SDS011;70753;47.908;11.274;2023-08-01T00:37:09;4.22;;;2.05;;
81273;SDS011;70753;47.908;11.274;2023-08-01T00:39:36;4.88;;;2.30;;
81273;SDS011;70753;47.908;11.274;2023-08-01T00:42:01;5.40;;;2.28;;
81273;SDS011;70753;47.908;11.274;2023-08-01T00:44:27;5.35;;;2.17;;
81273;SDS011;70753;47.908;11.274;2023-08-01T00:46:52;6.88;;;2.38;;
81273;SDS011;70753;47.908;11.274;2023-08-01T00:49:18;4.90;;;2.20;;
81273;SDS011;70753;47.908;11.274;2023-08-01T00:51:44;6.28;;;2.28;;
81273;SDS011;70753;47.908;11.274;2023-08-01T00:54:11;4.53;;;2.22;;
81273;SDS011;70753;47.908;11.274;2023-08-01T00:56:36;5.03;;;2.15;;
81273;SDS011;70753;47.908;11.274;2023-08-01T00:59:02;4.53;;;2.13;;
81273;SDS011;70753;47.908;11.274;2023-08-01T01:01:27;5.97;;;2.42;;
81273;SDS011;70753;47.908;11.274;2023-08-01T01:03:53;6.28;;;2.88;;
81273;SDS011;70753;47.908;11.274;2023-08-01T01:06:20;4.57;;;2.72;;
81273;SDS011;70753;47.908;11.274;2023-08-01T01:08:48;6.28;;;2.42;;
81273;SDS011;70753;47.908;11.274;2023-08-01T01:11:15;4.30;;;2.10;;
81273;SDS011;70753;47.908;11.274;2023-08-01T01:13:41;4.65;;;2.45;;
81273;SDS011;70753;47.908;11.274;2023-08-01T01:16:06;4.53;;;2.15;;
81273;SDS011;70753;47.908;11.274;2023-08-01T01:18:32;4.70;;;2.40;;
81273;SDS011;70753;47.908;11.274;2023-08-01T01:20:58;5.82;;;2.13;;
81273;SDS011;70753;47.908;11.274;2023-08-01T01:23:24;5.13;;;2.22;;
81273;SDS011;70753;47.908;11.274;2023-08-01T01:25:52;5.05;;;2.30;;
81273;SDS011;70753;47.908;11.274;2023-08-01T01:28:19;5.80;;;2.28;;
81273;SDS011;70753;47.908;11.274;2023-08-01T01:30:45;5.18;;;1.85;;
81273;SDS011;70753;47.908;11.274;2023-08-01T01:33:11;4.03;;;1.92;;
81273;SDS011;70753;47.908;11.274;2023-08-01T01:35:37;4.43;;;1.98;;
81273;SDS011;70753;47.908;11.274;2023-08-01T01:38:03;4.63;;;2.08;;
81273;SDS011;70753;47.908;11.274;2023-08-01T01:40:29;6.75;;;2.10;;
81273;SDS011;70753;47.908;11.274;2023-08-01T01:42:54;7.20;;;2.67;;
81273;SDS011;70753;47.908;11.274;2023-08-01T01:45:20;5.20;;;2.20;;
81273;SDS011;70753;47.908;11.274;2023-08-01T01:47:46;4.80;;;2.35;;
81273;SDS011;70753;47.908;11.274;2023-08-01T01:50:11;5.97;;;2.38;;
81273;SDS011;70753;47.908;11.274;2023-08-01T01:52:36;5.65;;;2.35;;
81273;SDS011;70753;47.908;11.274;2023-08-01T01:55:03;5.28;;;2.28;;
81273;SDS011;70753;47.908;11.274;2023-08-01T01:57:29;5.18;;;2.10;;
81273;SDS011;70753;47.908;11.274;2023-08-01T01:59:55;5.57;;;2.10;;
81273;SDS011;70753;47.908;11.274;2023-08-01T02:02:20;5.82;;;2.38;;
81273;SDS011;70753;47.908;11.274;2023-08-01T02:04:47;5.22;;;2.35;;
81273;SDS011;70753;47.908;11.274;2023-08-01T02:07:14;5.57;;;2.08;;
81273;SDS011;70753;47.908;11.274;2023-08-01T02:09:40;5.45;;;2.65;;
81273;SDS011;70753;47.908;11.274;2023-08-01T02:12:07;5.47;;;2.00;;
81273;SDS011;70753;47.908;11.274;2023-08-01T02:14:33;4.10;;;2.00;;
81273;SDS011;70753;47.908;11.274;2023-08-01T02:16:59;4.85;;;2.30;;
81273;SDS011;70753;47.908;11.274;2023-08-01T02:19:24;5.70;;;2.03;;
81273;SDS011;70753;47.908;11.274;2023-08-01T02:21:50;4.50;;;2.25;;
81273;SDS011;70753;47.908;11.274;2023-08-01T02:24:15;5.20;;;2.00;;
81273;SDS011;70753;47.908;11.274;2023-08-01T02:26:40;5.38;;;2.00;;
81273;SDS011;70753;47.908;11.274;2023-08-01T02:29:07;5.53;;;2.30;;
81273;SDS011;70753;47.908;11.274;2023-08-01T02:31:33;5.40;;;2.42;;
81273;SDS011;70753;47.908;11.274;2023-08-01T02:33:59;6.57;;;2.65;;
81273;SDS011;70753;47.908;11.274;2023-08-01T02:36:25;4.95;;;2.00;;
81273;SDS011;70753;47.908;11.274;2023-08-01T02:38:50;4.05;;;1.80;;
81273;SDS011;70753;47.908;11.274;2023-08-01T02:41:15;7.07;;;2.30;;
81273;SDS011;70753;47.908;11.274;2023-08-01T02:43:41;4.90;;;2.25;;
81273;SDS011;70753;47.908;11.274;2023-08-01T02:46:08;4.30;;;2.22;;
81273;SDS011;70753;47.908;11.274;2023-08-01T02:48:33;4.53;;;2.05;;
81273;SDS011;70753;47.908;11.274;2023-08-01T02:50:59;4.60;;;2.40;;
81273;SDS011;70753;47.908;11.274;2023-08-01T02:53:24;6.07;;;2.25;;
81273;SDS011;70753;47.908;11.274;2023-08-01T02:55:50;4.75;;;2.10;;
81273;SDS011;70753;47.908;11.274;2023-08-01T02:58:15;5.57;;;2.30;;
81273;SDS011;70753;47.908;11.274;2023-08-01T03:00:41;5.57;;;2.42;;
81273;SDS011;70753;47.908;11.274;2023-08-01T03:03:08;4.20;;;2.17;;
81273;SDS011;70753;47.908;11.274;2023-08-01T03:05:35;5.00;;;2.22;;
81273;SDS011;70753;47.908;11.274;2023-08-01T03:08:00;3.90;;;2.00;;
81273;SDS011;70753;47.908;11.274;2023-08-01T03:10:26;4.88;;;2.28;;
81273;SDS011;70753;47.908;11.274;2023-08-01T03:12:51;4.60;;;2.10;;
81273;SDS011;70753;47.908;11.274;2023-08-01T03:15:17;10.48;;;4.53;;
81273;SDS011;70753;47.908;11.274;2023-08-01T03:17:42;9.20;;;4.00;;
81273;SDS011;70753;47.908;11.274;2023-08-01T03:20:09;12.18;;;4.47;;
81273;SDS011;70753;47.908;11.274;2023-08-01T03:22:35;4.90;;;2.28;;
81273;SDS011;70753;47.908;11.274;2023-08-01T03:25:00;6.70;;;3.40;;
81273;SDS011;70753;47.908;11.274;2023-08-01T03:27:26;6.05;;;2.92;;
81273;SDS011;70753;47.908;11.274;2023-08-01T03:29:51;6.25;;;2.80;;
81273;SDS011;70753;47.908;11.274;2023-08-01T03:32:17;7.97;;;3.35;;
81273;SDS011;70753;47.908;11.274;2023-08-01T03:34:42;6.85;;;2.72;;
81273;SDS011;70753;47.908;11.274;2023-08-01T03:37:09;5.95;;;2.10;;
81273;SDS011;70753;47.908;11.274;2023-08-01T03:39:34;6.03;;;2.40;;
81273;SDS011;70753;47.908;11.274;2023-08-01T03:42:00;5.28;;;2.42;;
81273;SDS011;70753;47.908;11.274;2023-08-01T03:44:25;5.65;;;2.13;;
81273;SDS011;70753;47.908;11.274;2023-08-01T03:46:51;5.85;;;2.40;;
81273;SDS011;70753;47.908;11.274;2023-08-01T03:49:16;3.88;;;1.83;;
81273;SDS011;70753;47.908;11.274;2023-08-01T03:51:42;8.35;;;3.30;;
81273;SDS011;70753;47.908;11.274;2023-08-01T03:54:08;6.72;;;2.85;;
81273;SDS011;70753;47.908;11.274;2023-08-01T03:56:34;6.90;;;1.85;;
81273;SDS011;70753;47.908;11.274;2023-08-01T03:58:59;4.97;;;2.20;;
81273;SDS011;70753;47.908;11.274;2023-08-01T04:01:25;6.13;;;2.08;;
81273;SDS011;70753;47.908;11.274;2023-08-01T04:03:50;7.00;;;2.75;;
81273;SDS011;70753;47.908;11.274;2023-08-01T04:06:16;5.15;;;2.40;;
81273;SDS011;70753;47.908;11.274;2023-08-01T04:08:41;6.05;;;2.70;;
81273;SDS011;70753;47.908;11.274;2023-08-01T04:11:08;4.93;;;2.00;;
81273;SDS011;70753;47.908;11.274;2023-08-01T04:13:34;4.70;;;2.03;;
81273;SDS011;70753;47.908;11.274;2023-08-01T04:15:59;4.80;;;2.28;;
81273;SDS011;70753;47.908;11.274;2023-08-01T04:18:24;4.10;;;2.00;;
81273;SDS011;70753;47.908;11.274;2023-08-01T04:20:50;4.70;;;2.40;;
81273;SDS011;70753;47.908;11.274;2023-08-01T04:23:17;5.82;;;2.17;;
81273;SDS011;70753;47.908;11.274;2023-08-01T04:25:42;6.57;;;2.00;;
81273;SDS011;70753;47.908;11.274;2023-08-01T04:28:09;5.95;;;2.30;;
81273;SDS011;70753;47.908;11.274;2023-08-01T04:30:34;5.18;;;2.58;;
81273;SDS011;70753;47.908;11.274;2023-08-01T04:33:00;5.32;;;2.05;;
81273;SDS011;70753;47.908;11.274;2023-08-01T04:35:25;5.72;;;2.33;;
81273;SDS011;70753;47.908;11.274;2023-08-01T04:37:51;4.90;;;2.20;;
81273;SDS011;70753;47.908;11.274;2023-08-01T04:40:16;6.15;;;2.60;;
81273;SDS011;70753;47.908;11.274;2023-08-01T04:42:42;5.38;;;2.30;;
81273;SDS011;70753;47.908;11.274;2023-08-01T04:45:09;5.47;;;2.20;;
81273;SDS011;70753;47.908;11.274;2023-08-01T04:47:35;6.90;;;2.22;;
81273;SDS011;70753;47.908;11.274;2023-08-01T04:50:01;19.35;;;6.18;;
81273;SDS011;70753;47.908;11.274;2023-08-01T04:52:26;11.60;;;3.85;;
81273;SDS011;70753;47.908;11.274;2023-08-01T04:54:52;7.72;;;2.90;;
81273;SDS011;70753;47.908;11.274;2023-08-01T04:57:17;7.75;;;2.85;;
81273;SDS011;70753;47.908;11.274;2023-08-01T04:59:42;5.85;;;2.45;;
81273;SDS011;70753;47.908;11.274;2023-08-01T05:02:09;7.35;;;2.90;;
81273;SDS011;70753;47.908;11.274;2023-08-01T05:04:35;5.15;;;2.35;;
81273;SDS011;70753;47.908;11.274;2023-08-01T05:07:00;7.63;;;3.05;;
81273;SDS011;70753;47.908;11.274;2023-08-01T05:09:26;5.50;;;2.75;;
81273;SDS011;70753;47.908;11.274;2023-08-01T05:11:51;6.25;;;2.72;;
81273;SDS011;70753;47.908;11.274;2023-08-01T05:14:16;6.82;;;2.63;;
81273;SDS011;70753;47.908;11.274;2023-08-01T05:16:42;6.38;;;2.60;;
81273;SDS011;70753;47.908;11.274;2023-08-01T05:19:09;6.45;;;2.75;;
81273;SDS011;70753;47.908;11.274;2023-08-01T05:21:34;6.13;;;3.17;;
81273;SDS011;70753;47.908;11.274;2023-08-01T05:23:59;5.75;;;2.65;;
81273;SDS011;70753;47.908;11.274;2023-08-01T05:26:25;6.90;;;2.95;;
81273;SDS011;70753;47.908;11.274;2023-08-01T05:28:50;6.43;;;3.10;;
81273;SDS011;70753;47.908;11.274;2023-08-01T05:31:16;6.10;;;2.70;;
81273;SDS011;70753;47.908;11.274;2023-08-01T05:33:41;5.78;;;2.95;;
81273;SDS011;70753;47.908;11.274;2023-08-01T05:36:08;6.35;;;3.00;;
81273;SDS011;70753;47.908;11.274;2023-08-01T05:38:33;6.22;;;2.90;;
81273;SDS011;70753;47.908;11.274;2023-08-01T05:40:59;7.40;;;2.80;;
81273;SDS011;70753;47.908;11.274;2023-08-01T05:43:24;6.65;;;3.08;;
81273;SDS011;70753;47.908;11.274;2023-08-01T05:45:50;6.78;;;2.70;;
81273;SDS011;70753;47.908;11.274;2023-08-01T05:48:16;6.30;;;2.83;;
81273;SDS011;70753;47.908;11.274;2023-08-01T05:50:41;6.03;;;2.67;;
81273;SDS011;70753;47.908;11.274;2023-08-01T05:53:08;7.15;;;2.80;;
81273;SDS011;70753;47.908;11.274;2023-08-01T05:55:34;6.88;;;3.10;;
81273;SDS011;70753;47.908;11.274;2023-08-01T05:58:02;6.82;;;3.10;;
81273;SDS011;70753;47.908;11.274;2023-08-01T06:00:27;6.30;;;2.70;;
81273;SDS011;70753;47.908;11.274;2023-08-01T06:02:53;7.15;;;2.90;;
81273;SDS011;70753;47.908;11.274;2023-08-01T06:05:18;5.97;;;3.00;;
81273;SDS011;70753;47.908;11.274;2023-08-01T06:07:43;7.45;;;3.30;;
81273;SDS011;70753;47.908;11.274;2023-08-01T06:10:10;5.63;;;2.72;;
81273;SDS011;70753;47.908;11.274;2023-08-01T06:12:36;5.90;;;2.72;;
81273;SDS011;70753;47.908;11.274;2023-08-01T06:15:01;6.22;;;3.38;;
81273;SDS011;70753;47.908;11.274;2023-08-01T06:17:27;7.13;;;3.10;;
81273;SDS011;70753;47.908;11.274;2023-08-01T06:19:52;8.35;;;3.03;;
81273;SDS011;70753;47.908;11.274;2023-08-01T06:22:18;7.07;;;2.95;;
81273;SDS011;70753;47.908;11.274;2023-08-01T06:24:43;6.93;;;3.55;;
81273;SDS011;70753;47.908;11.274;2023-08-01T06:27:10;5.53;;;2.80;;
81273;SDS011;70753;47.908;11.274;2023-08-01T06:29:36;6.57;;;2.72;;
81273;SDS011;70753;47.908;11.274;2023-08-01T06:32:01;7.72;;;2.95;;
81273;SDS011;70753;47.908;11.274;2023-08-01T06:34:26;5.35;;;2.40;;
81273;SDS011;70753;47.908;11.274;2023-08-01T06:36:52;7.15;;;2.97;;
81273;SDS011;70753;47.908;11.274;2023-08-01T06:39:18;6.20;;;2.72;;
81273;SDS011;70753;47.908;11.274;2023-08-01T06:41:43;8.02;;;2.72;;
81273;SDS011;70753;47.908;11.274;2023-08-01T06:44:10;5.50;;;2.40;;
81273;SDS011;70753;47.908;11.274;2023-08-01T06:46:36;6.90;;;2.90;;
81273;SDS011;70753;47.908;11.274;2023-08-01T06:49:01;5.28;;;2.55;;
81273;SDS011;70753;47.908;11.274;2023-08-01T06:51:27;5.20;;;2.30;;
81273;SDS011;70753;47.908;11.274;2023-08-01T06:53:52;5.28;;;2.13;;
81273;SDS011;70753;47.908;11.274;2023-08-01T06:56:18;6.90;;;2.42;;
81273;SDS011;70753;47.908;11.274;2023-08-01T06:58:43;6.03;;;2.20;;
81273;SDS011;70753;47.908;11.274;2023-08-01T07:01:10;6.15;;;2.85;;
81273;SDS011;70753;47.908;11.274;2023-08-01T07:03:35;5.55;;;2.60;;
81273;SDS011;70753;47.908;11.274;2023-08-01T07:06:00;5.10;;;2.40;;
81273;SDS011;70753;47.908;11.274;2023-08-01T07:08:26;5.38;;;2.35;;
81273;SDS011;70753;47.908;11.274;2023-08-01T07:10:51;5.93;;;2.97;;
81273;SDS011;70753;47.908;11.274;2023-08-01T07:13:17;6.25;;;2.60;;
81273;SDS011;70753;47.908;11.274;2023-08-01T07:15:42;5.03;;;2.50;;
81273;SDS011;70753;47.908;11.274;2023-08-01T07:18:09;5.10;;;2.60;;
81273;SDS011;70753;47.908;11.274;2023-08-01T07:20:34;5.57;;;2.47;;
81273;SDS011;70753;47.908;11.274;2023-08-01T07:23:00;6.05;;;2.42;;
81273;SDS011;70753;47.908;11.274;2023-08-01T07:25:25;5.88;;;2.90;;
81273;SDS011;70753;47.908;11.274;2023-08-01T07:27:51;8.25;;;2.92;;
81273;SDS011;70753;47.908;11.274;2023-08-01T07:30:16;7.15;;;2.22;;
81273;SDS011;70753;47.908;11.274;2023-08-01T07:32:42;5.90;;;2.53;;
81273;SDS011;70753;47.908;11.274;2023-08-01T07:35:10;4.97;;;2.53;;
81273;SDS011;70753;47.908;11.274;2023-08-01T07:37:35;5.13;;;2.45;;
81273;SDS011;70753;47.908;11.274;2023-08-01T07:40:01;4.50;;;2.17;;
81273;SDS011;70753;47.908;11.274;2023-08-01T07:42:27;5.18;;;2.67;;
81273;SDS011;70753;47.908;11.274;2023-08-01T07:44:52;6.22;;;2.17;;
81273;SDS011;70753;47.908;11.274;2023-08-01T07:47:18;5.32;;;2.85;;
81273;SDS011;70753;47.908;11.274;2023-08-01T07:49:43;4.80;;;2.30;;
81273;SDS011;70753;47.908;11.274;2023-08-01T07:52:10;5.32;;;2.30;;
81273;SDS011;70753;47.908;11.274;2023-08-01T07:54:37;6.13;;;2.17;;
81273;SDS011;70753;47.908;11.274;2023-08-01T07:57:03;5.93;;;2.70;;
81273;SDS011;70753;47.908;11.274;2023-08-01T07:59:29;5.70;;;2.72;;
81273;SDS011;70753;47.908;11.274;2023-08-01T08:01:54;6.07;;;2.70;;
81273;SDS011;70753;47.908;11.274;2023-08-01T08:04:20;5.35;;;2.35;;
81273;SDS011;70753;47.908;11.274;2023-08-01T08:06:45;5.95;;;2.67;;
81273;SDS011;70753;47.908;11.274;2023-08-01T08:09:13;6.20;;;2.50;;
81273;SDS011;70753;47.908;11.274;2023-08-01T08:11:39;5.57;;;2.40;;
81273;SDS011;70753;47.908;11.274;2023-08-01T08:14:04;6.93;;;2.42;;
81273;SDS011;70753;47.908;11.274;2023-08-01T08:16:29;6.43;;;2.97;;
81273;SDS011;70753;47.908;11.274;2023-08-01T08:18:55;5.80;;;2.80;;
81273;SDS011;70753;47.908;11.274;2023-08-01T08:21:20;5.18;;;2.50;;
81273;SDS011;70753;47.908;11.274;2023-08-01T08:23:46;5.18;;;2.63;;
81273;SDS011;70753;47.908;11.274;2023-08-01T08:26:13;6.43;;;3.08;;
81273;SDS011;70753;47.908;11.274;2023-08-01T08:28:38;6.13;;;3.08;;
81273;SDS011;70753;47.908;11.274;2023-08-01T08:31:04;8.02;;;2.95;;
81273;SDS011;70753;47.908;11.274;2023-08-01T08:33:30;6.90;;;3.30;;
81273;SDS011;70753;47.908;11.274;2023-08-01T08:35:56;6.50;;;2.90;;
81273;SDS011;70753;47.908;11.274;2023-08-01T08:38:21;6.25;;;3.20;;
81273;SDS011;70753;47.908;11.274;2023-08-01T08:40:49;7.25;;;3.10;;
81273;SDS011;70753;47.908;11.274;2023-08-01T08:43:22;6.97;;;2.75;;
81273;SDS011;70753;47.908;11.274;2023-08-01T08:45:48;6.55;;;2.95;;
81273;SDS011;70753;47.908;11.274;2023-08-01T08:48:17;5.75;;;2.80;;
81273;SDS011;70753;47.908;11.274;2023-08-01T08:50:43;7.93;;;2.92;;
81273;SDS011;70753;47.908;11.274;2023-08-01T08:53:11;6.18;;;2.75;;
81273;SDS011;70753;47.908;11.274;2023-08-01T08:55:36;6.90;;;2.85;;
81273;SDS011;70753;47.908;11.274;2023-08-01T08:58:03;6.50;;;2.55;;
81273;SDS011;70753;47.908;11.274;2023-08-01T09:00:31;5.97;;;2.80;;
81273;SDS011;70753;47.908;11.274;2023-08-01T09:02:56;5.28;;;2.70;;
81273;SDS011;70753;47.908;11.274;2023-08-01T09:05:22;6.90;;;2.95;;
81273;SDS011;70753;47.908;11.274;2023-08-01T09:07:52;5.95;;;2.80;;
81273;SDS011;70753;47.908;11.274;2023-08-01T09:10:21;6.05;;;2.90;;
81273;SDS011;70753;47.908;11.274;2023-08-01T09:12:46;6.32;;;3.05;;
81273;SDS011;70753;47.908;11.274;2023-08-01T09:15:12;8.35;;;3.55;;
81273;SDS011;70753;47.908;11.274;2023-08-01T09:17:48;6.05;;;3.08;;
81273;SDS011;70753;47.908;11.274;2023-08-01T09:20:14;7.55;;;3.42;;
81273;SDS011;70753;47.908;11.274;2023-08-01T09:22:43;7.90;;;2.97;;
81273;SDS011;70753;47.908;11.274;2023-08-01T09:25:09;7.25;;;3.78;;
81273;SDS011;70753;47.908;11.274;2023-08-01T09:27:34;7.68;;;2.90;;
81273;SDS011;70753;47.908;11.274;2023-08-01T09:30:04;7.50;;;3.33;;
81273;SDS011;70753;47.908;11.274;2023-08-01T09:32:31;6.38;;;3.00;;
81273;SDS011;70753;47.908;11.274;2023-08-01T09:34:59;6.32;;;3.17;;
81273;SDS011;70753;47.908;11.274;2023-08-01T09:37:25;5.93;;;2.90;;
81273;SDS011;70753;47.908;11.274;2023-08-01T09:39:52;7.18;;;3.10;;
81273;SDS011;70753;47.908;11.274;2023-08-01T09:42:18;6.22;;;3.33;;
81273;SDS011;70753;47.908;11.274;2023-08-01T09:44:44;6.30;;;3.10;;
81273;SDS011;70753;47.908;11.274;2023-08-01T09:47:10;5.95;;;3.08;;
81273;SDS011;70753;47.908;11.274;2023-08-01T09:49:36;6.40;;;3.40;;
81273;SDS011;70753;47.908;11.274;2023-08-01T09:52:14;6.95;;;3.08;;
81273;SDS011;70753;47.908;11.274;2023-08-01T09:54:39;6.63;;;2.83;;
81273;SDS011;70753;47.908;11.274;2023-08-01T09:57:05;7.10;;;3.03;;
81273;SDS011;70753;47.908;11.274;2023-08-01T09:59:32;6.78;;;3.08;;
81273;SDS011;70753;47.908;11.274;2023-08-01T10:01:58;7.20;;;3.30;;
81273;SDS011;70753;47.908;11.274;2023-08-01T10:04:26;6.80;;;3.40;;
81273;SDS011;70753;47.908;11.274;2023-08-01T10:06:54;5.65;;;2.70;;
81273;SDS011;70753;47.908;11.274;2023-08-01T10:09:24;6.45;;;3.42;;
81273;SDS011;70753;47.908;11.274;2023-08-01T10:11:50;7.13;;;3.15;;
81273;SDS011;70753;47.908;11.274;2023-08-01T10:14:16;7.75;;;3.00;;
81273;SDS011;70753;47.908;11.274;2023-08-01T10:16:42;6.72;;;2.80;;
81273;SDS011;70753;47.908;11.274;2023-08-01T10:19:08;7.45;;;3.25;;
81273;SDS011;70753;47.908;11.274;2023-08-01T10:21:34;5.80;;;2.97;;
81273;SDS011;70753;47.908;11.274;2023-08-01T10:24:01;6.72;;;3.47;;
81273;SDS011;70753;47.908;11.274;2023-08-01T10:26:31;7.15;;;3.03;;
81273;SDS011;70753;47.908;11.274;2023-08-01T10:28:57;8.13;;;2.80;;
81273;SDS011;70753;47.908;11.274;2023-08-01T10:31:22;6.75;;;3.00;;
81273;SDS011;70753;47.908;11.274;2023-08-01T10:33:48;6.70;;;2.80;;
81273;SDS011;70753;47.908;11.274;2023-08-01T10:36:15;7.75;;;3.45;;
81273;SDS011;70753;47.908;11.274;2023-08-01T10:38:44;9.00;;;3.17;;
81273;SDS011;70753;47.908;11.274;2023-08-01T10:41:17;5.47;;;2.45;;
81273;SDS011;70753;47.908;11.274;2023-08-01T10:43:45;6.22;;;2.53;;
81273;SDS011;70753;47.908;11.274;2023-08-01T10:46:11;6.85;;;2.90;;
81273;SDS011;70753;47.908;11.274;2023-08-01T10:48:47;6.55;;;2.50;;
81273;SDS011;70753;47.908;11.274;2023-08-01T10:51:13;6.63;;;2.72;;
81273;SDS011;70753;47.908;11.274;2023-08-01T10:53:38;6.25;;;3.20;;
81273;SDS011;70753;47.908;11.274;2023-08-01T10:56:05;6.13;;;2.95;;
81273;SDS011;70753;47.908;11.274;2023-08-01T10:58:30;5.95;;;2.65;;
81273;SDS011;70753;47.908;11.274;2023-08-01T11:01:00;7.72;;;2.80;;
81273;SDS011;70753;47.908;11.274;2023-08-01T11:03:33;6.97;;;2.78;;
81273;SDS011;70753;47.908;11.274;2023-08-01T11:05:59;7.15;;;2.60;;
81273;SDS011;70753;47.908;11.274;2023-08-01T11:08:33;5.78;;;2.80;;
81273;SDS011;70753;47.908;11.274;2023-08-01T11:10:59;8.68;;;3.00;;
81273;SDS011;70753;47.908;11.274;2023-08-01T11:13:25;5.93;;;2.80;;
81273;SDS011;70753;47.908;11.274;2023-08-01T11:15:50;5.20;;;2.60;;
81273;SDS011;70753;47.908;11.274;2023-08-01T11:18:17;5.15;;;2.50;;
81273;SDS011;70753;47.908;11.274;2023-08-01T11:20:42;5.10;;;2.38;;
81273;SDS011;70753;47.908;11.274;2023-08-01T11:23:08;6.45;;;2.63;;
81273;SDS011;70753;47.908;11.274;2023-08-01T11:25:34;6.32;;;2.85;;
81273;SDS011;70753;47.908;11.274;2023-08-01T11:28:01;5.57;;;2.40;;
81273;SDS011;70753;47.908;11.274;2023-08-01T11:30:29;5.57;;;2.38;;
81273;SDS011;70753;47.908;11.274;2023-08-01T11:32:55;6.60;;;2.53;;
81273;SDS011;70753;47.908;11.274;2023-08-01T11:35:23;5.45;;;2.85;;
81273;SDS011;70753;47.908;11.274;2023-08-01T11:37:49;6.68;;;2.63;;
81273;SDS011;70753;47.908;11.274;2023-08-01T11:40:15;4.97;;;2.28;;
81273;SDS011;70753;47.908;11.274;2023-08-01T11:42:41;5.45;;;2.58;;
81273;SDS011;70753;47.908;11.274;2023-08-01T11:45:07;6.03;;;2.60;;
81273;SDS011;70753;47.908;11.274;2023-08-01T11:47:34;4.85;;;2.25;;
81273;SDS011;70753;47.908;11.274;2023-08-01T11:49:59;5.70;;;2.63;;
81273;SDS011;70753;47.908;11.274;2023-08-01T11:52:27;4.88;;;2.30;;
81273;SDS011;70753;47.908;11.274;2023-08-01T11:54:53;4.57;;;2.45;;
81273;SDS011;70753;47.908;11.274;2023-08-01T11:57:18;5.25;;;2.20;;
81273;SDS011;70753;47.908;11.274;2023-08-01T11:59:47;4.43;;;2.00;;
81273;SDS011;70753;47.908;11.274;2023-08-01T12:02:20;6.20;;;2.35;;
81273;SDS011;70753;47.908;11.274;2023-08-01T12:04:46;5.07;;;2.10;;
81273;SDS011;70753;47.908;11.274;2023-08-01T12:07:12;3.72;;;1.75;;
81273;SDS011;70753;47.908;11.274;2023-08-01T12:09:39;4.28;;;2.10;;
81273;SDS011;70753;47.908;11.274;2023-08-01T12:12:04;4.93;;;2.13;;
81273;SDS011;70753;47.908;11.274;2023-08-01T12:14:30;4.60;;;1.92;;
81273;SDS011;70753;47.908;11.274;2023-08-01T12:16:55;5.00;;;2.15;;
81273;SDS011;70753;47.908;11.274;2023-08-01T12:19:21;4.93;;;2.10;;
81273;SDS011;70753;47.908;11.274;2023-08-01T12:21:46;3.85;;;1.70;;
81273;SDS011;70753;47.908;11.274;2023-08-01T12:24:12;4.35;;;1.92;;
81273;SDS011;70753;47.908;11.274;2023-08-01T12:26:39;3.97;;;1.85;;
81273;SDS011;70753;47.908;11.274;2023-08-01T12:29:05;4.15;;;1.77;;
81273;SDS011;70753;47.908;11.274;2023-08-01T12:31:30;3.97;;;1.70;;
81273;SDS011;70753;47.908;11.274;2023-08-01T12:33:56;3.28;;;1.73;;
81273;SDS011;70753;47.908;11.274;2023-08-01T12:36:21;5.18;;;1.95;;
81273;SDS011;70753;47.908;11.274;2023-08-01T12:38:47;4.63;;;2.00;;
81273;SDS011;70753;47.908;11.274;2023-08-01T12:41:13;7.10;;;4.03;;
81273;SDS011;70753;47.908;11.274;2023-08-01T12:43:40;5.15;;;1.90;;
81273;SDS011;70753;47.908;11.274;2023-08-01T12:46:06;4.60;;;1.70;;
81273;SDS011;70753;47.908;11.274;2023-08-01T12:48:31;3.97;;;1.92;;
81273;SDS011;70753;47.908;11.274;2023-08-01T12:50:57;4.25;;;1.70;;
81273;SDS011;70753;47.908;11.274;2023-08-01T12:53:22;3.35;;;1.50;;
81273;SDS011;70753;47.908;11.274;2023-08-01T12:55:48;4.93;;;1.70;;
81273;SDS011;70753;47.908;11.274;2023-08-01T12:58:15;5.22;;;2.17;;
81273;SDS011;70753;47.908;11.274;2023-08-01T13:00:43;4.80;;;1.90;;
81273;SDS011;70753;47.908;11.274;2023-08-01T13:03:09;12.88;;;1.98;;
81273;SDS011;70753;47.908;11.274;2023-08-01T13:05:35;3.67;;;1.55;;
81273;SDS011;70753;47.908;11.274;2023-08-01T13:08:01;4.40;;;1.55;;
81273;SDS011;70753;47.908;11.274;2023-08-01T13:10:29;4.07;;;1.58;;
81273;SDS011;70753;47.908;11.274;2023-08-01T13:12:55;4.68;;;1.52;;
81273;SDS011;70753;47.908;11.274;2023-08-01T13:15:20;3.90;;;1.52;;
81273;SDS011;70753;47.908;11.274;2023-08-01T13:17:47;3.97;;;1.80;;
81273;SDS011;70753;47.908;11.274;2023-08-01T13:20:12;3.63;;;1.60;;
81273;SDS011;70753;47.908;11.274;2023-08-01T13:22:38;5.80;;;2.03;;
81273;SDS011;70753;47.908;11.274;2023-08-01T13:25:03;4.57;;;1.77;;
81273;SDS011;70753;47.908;11.274;2023-08-01T13:27:29;4.57;;;1.83;;
81273;SDS011;70753;47.908;11.274;2023-08-01T13:29:54;3.78;;;1.88;;
81273;SDS011;70753;47.908;11.274;2023-08-01T13:32:20;4.68;;;1.80;;
81273;SDS011;70753;47.908;11.274;2023-08-01T13:34:47;5.63;;;2.10;;
81273;SDS011;70753;47.908;11.274;2023-08-01T13:37:13;4.03;;;1.63;;
81273;SDS011;70753;47.908;11.274;2023-08-01T13:39:38;4.38;;;1.50;;
81273;SDS011;70753;47.908;11.274;2023-08-01T13:42:05;3.88;;;1.77;;
81273;SDS011;70753;47.908;11.274;2023-08-01T13:44:30;3.60;;;1.48;;
81273;SDS011;70753;47.908;11.274;2023-08-01T13:46:56;4.60;;;1.63;;
81273;SDS011;70753;47.908;11.274;2023-08-01T13:49:21;3.30;;;1.50;;
81273;SDS011;70753;47.908;11.274;2023-08-01T13:51:48;4.03;;;1.67;;
81273;SDS011;70753;47.908;11.274;2023-08-01T13:54:13;3.00;;;1.23;;
81273;SDS011;70753;47.908;11.274;2023-08-01T13:56:38;2.83;;;1.40;;
81273;SDS011;70753;47.908;11.274;2023-08-01T13:59:04;2.13;;;1.05;;
81273;SDS011;70753;47.908;11.274;2023-08-01T14:01:29;2.85;;;1.08;;
81273;SDS011;70753;47.908;11.274;2023-08-01T14:03:55;2.88;;;1.40;;
81273;SDS011;70753;47.908;11.274;2023-08-01T14:06:20;3.17;;;1.30;;
81273;SDS011;70753;47.908;11.274;2023-08-01T14:08:47;2.95;;;1.10;;
81273;SDS011;70753;47.908;11.274;2023-08-01T14:11:12;2.80;;;1.20;;
81273;SDS011;70753;47.908;11.274;2023-08-01T14:13:38;2.80;;;1.10;;
81273;SDS011;70753;47.908;11.274;2023-08-01T14:16:03;3.88;;;1.60;;
81273;SDS011;70753;47.908;11.274;2023-08-01T14:18:29;3.10;;;1.33;;
81273;SDS011;70753;47.908;11.274;2023-08-01T14:20:54;4.32;;;1.30;;
81273;SDS011;70753;47.908;11.274;2023-08-01T14:23:20;2.85;;;1.05;;
81273;SDS011;70753;47.908;11.274;2023-08-01T14:25:47;2.63;;;1.10;;